sensor_id;sensor_type;location;lat;lon;timestamp;P1;durP1;ratioP1;P2;durP2;ratioP2
62696;SDS011;48761;42.680;23.312;2023-10-13T00:00:11;13.02;;;8.10;;
62696;SDS011;48761;42.680;23.312;2023-10-13T00:02:37;15.88;;;8.80;;
62696;SDS011;48761;42.680;23.312;2023-10-13T00:05:03;22.60;;;8.43;;
62696;SDS011;48761;42.680;23.312;2023-10-13T00:07:29;17.27;;;8.77;;
62696;SDS011;48761;42.680;23.312;2023-10-13T00:09:55;13.95;;;7.80;;
62696;SDS011;48761;42.680;23.312;2023-10-13T00:12:21;14.90;;;8.05;;
62696;SDS011;48761;42.680;23.312;2023-10-13T00:14:47;13.15;;;8.10;;
62696;SDS011;48761;42.680;23.312;2023-10-13T00:17:13;11.18;;;7.80;;
62696;SDS011;48761;42.680;23.312;2023-10-13T00:19:39;17.60;;;8.65;;
62696;SDS011;48761;42.680;23.312;2023-10-13T00:22:06;16.35;;;8.52;;
62696;SDS011;48761;42.680;23.312;2023-10-13T00:24:33;12.98;;;8.02;;
62696;SDS011;48761;42.680;23.312;2023-10-13T00:26:59;13.35;;;8.43;;
62696;SDS011;48761;42.680;23.312;2023-10-13T00:29:24;13.70;;;8.00;;
62696;SDS011;48761;42.680;23.312;2023-10-13T00:31:50;13.80;;;7.93;;
62696;SDS011;48761;42.680;23.312;2023-10-13T00:34:16;12.63;;;7.57;;
62696;SDS011;48761;42.680;23.312;2023-10-13T00:36:42;11.02;;;7.30;;
62696;SDS011;48761;42.680;23.312;2023-10-13T00:39:08;15.57;;;7.93;;
62696;SDS011;48761;42.680;23.312;2023-10-13T00:41:34;11.70;;;7.65;;
62696;SDS011;48761;42.680;23.312;2023-10-13T00:44:00;14.00;;;7.80;;
62696;SDS011;48761;42.680;23.312;2023-10-13T00:46:26;15.43;;;8.55;;
62696;SDS011;48761;42.680;23.312;2023-10-13T00:48:51;11.88;;;7.45;;
62696;SDS011;48761;42.680;23.312;2023-10-13T00:51:18;12.95;;;7.30;;
62696;SDS011;48761;42.680;23.312;2023-10-13T00:53:44;14.48;;;8.05;;
62696;SDS011;48761;42.680;23.312;2023-10-13T00:56:11;16.52;;;8.02;;
62696;SDS011;48761;42.680;23.312;2023-10-13T00:58:37;17.65;;;8.90;;
62696;SDS011;48761;42.680;23.312;2023-10-13T01:01:03;14.05;;;8.57;;
62696;SDS011;48761;42.680;23.312;2023-10-13T01:03:29;16.40;;;8.48;;
62696;SDS011;48761;42.680;23.312;2023-10-13T01:05:55;16.35;;;9.35;;
62696;SDS011;48761;42.680;23.312;2023-10-13T01:08:32;13.75;;;8.15;;
62696;SDS011;48761;42.680;23.312;2023-10-13T01:10:58;14.85;;;8.55;;
62696;SDS011;48761;42.680;23.312;2023-10-13T01:13:24;14.77;;;8.90;;
62696;SDS011;48761;42.680;23.312;2023-10-13T01:15:50;16.50;;;8.93;;
62696;SDS011;48761;42.680;23.312;2023-10-13T01:18:16;16.05;;;9.13;;
62696;SDS011;48761;42.680;23.312;2023-10-13T01:20:42;17.05;;;9.15;;
62696;SDS011;48761;42.680;23.312;2023-10-13T01:23:10;15.20;;;9.25;;
62696;SDS011;48761;42.680;23.312;2023-10-13T01:25:39;15.32;;;9.48;;
62696;SDS011;48761;42.680;23.312;2023-10-13T01:28:05;12.48;;;9.32;;
62696;SDS011;48761;42.680;23.312;2023-10-13T01:30:31;17.70;;;8.68;;
62696;SDS011;48761;42.680;23.312;2023-10-13T01:32:56;13.15;;;8.63;;
62696;SDS011;48761;42.680;23.312;2023-10-13T01:35:23;16.63;;;9.10;;
62696;SDS011;48761;42.680;23.312;2023-10-13T01:37:48;15.20;;;8.82;;
62696;SDS011;48761;42.680;23.312;2023-10-13T01:40:14;14.07;;;9.25;;
62696;SDS011;48761;42.680;23.312;2023-10-13T01:42:40;15.48;;;8.85;;
62696;SDS011;48761;42.680;23.312;2023-10-13T01:45:06;17.92;;;8.75;;
62696;SDS011;48761;42.680;23.312;2023-10-13T01:47:32;16.33;;;9.07;;
62696;SDS011;48761;42.680;23.312;2023-10-13T01:49:59;12.88;;;9.35;;
62696;SDS011;48761;42.680;23.312;2023-10-13T01:52:25;15.55;;;9.15;;
62696;SDS011;48761;42.680;23.312;2023-10-13T01:54:50;13.70;;;9.00;;
62696;SDS011;48761;42.680;23.312;2023-10-13T01:57:17;15.75;;;9.73;;
62696;SDS011;48761;42.680;23.312;2023-10-13T01:59:43;13.27;;;8.85;;
62696;SDS011;48761;42.680;23.312;2023-10-13T02:02:10;13.00;;;8.95;;
62696;SDS011;48761;42.680;23.312;2023-10-13T02:04:37;17.08;;;9.70;;
62696;SDS011;48761;42.680;23.312;2023-10-13T02:07:02;14.05;;;8.77;;
62696;SDS011;48761;42.680;23.312;2023-10-13T02:09:28;17.52;;;8.65;;
62696;SDS011;48761;42.680;23.312;2023-10-13T02:11:54;14.07;;;9.43;;
62696;SDS011;48761;42.680;23.312;2023-10-13T02:14:20;14.35;;;8.95;;
62696;SDS011;48761;42.680;23.312;2023-10-13T02:16:47;18.40;;;8.95;;
62696;SDS011;48761;42.680;23.312;2023-10-13T02:19:13;14.02;;;8.55;;
62696;SDS011;48761;42.680;23.312;2023-10-13T02:21:38;18.30;;;9.38;;
62696;SDS011;48761;42.680;23.312;2023-10-13T02:24:07;17.40;;;9.60;;
62696;SDS011;48761;42.680;23.312;2023-10-13T02:26:34;14.38;;;9.15;;
62696;SDS011;48761;42.680;23.312;2023-10-13T02:29:00;13.77;;;9.20;;
62696;SDS011;48761;42.680;23.312;2023-10-13T02:31:27;17.48;;;9.48;;
62696;SDS011;48761;42.680;23.312;2023-10-13T02:33:53;16.52;;;9.50;;
62696;SDS011;48761;42.680;23.312;2023-10-13T02:36:19;17.95;;;9.70;;
62696;SDS011;48761;42.680;23.312;2023-10-13T02:38:45;15.85;;;10.45;;
62696;SDS011;48761;42.680;23.312;2023-10-13T02:41:12;16.65;;;9.35;;
62696;SDS011;48761;42.680;23.312;2023-10-13T02:43:38;15.55;;;10.18;;
62696;SDS011;48761;42.680;23.312;2023-10-13T02:46:04;17.70;;;9.68;;
62696;SDS011;48761;42.680;23.312;2023-10-13T02:48:32;18.30;;;9.90;;
62696;SDS011;48761;42.680;23.312;2023-10-13T02:50:58;13.65;;;8.95;;
62696;SDS011;48761;42.680;23.312;2023-10-13T02:53:25;18.77;;;9.52;;
62696;SDS011;48761;42.680;23.312;2023-10-13T02:55:54;12.02;;;8.98;;
62696;SDS011;48761;42.680;23.312;2023-10-13T02:58:21;16.48;;;9.55;;
62696;SDS011;48761;42.680;23.312;2023-10-13T03:00:47;15.27;;;9.13;;
62696;SDS011;48761;42.680;23.312;2023-10-13T03:03:13;14.57;;;8.88;;
62696;SDS011;48761;42.680;23.312;2023-10-13T03:05:40;15.77;;;9.38;;
62696;SDS011;48761;42.680;23.312;2023-10-13T03:08:06;14.70;;;10.00;;
62696;SDS011;48761;42.680;23.312;2023-10-13T03:10:32;15.55;;;9.10;;
62696;SDS011;48761;42.680;23.312;2023-10-13T03:12:58;19.40;;;9.43;;
62696;SDS011;48761;42.680;23.312;2023-10-13T03:15:23;15.18;;;9.13;;
62696;SDS011;48761;42.680;23.312;2023-10-13T03:17:49;16.08;;;9.23;;
62696;SDS011;48761;42.680;23.312;2023-10-13T03:20:16;18.17;;;8.90;;
62696;SDS011;48761;42.680;23.312;2023-10-13T03:22:43;16.13;;;8.77;;
62696;SDS011;48761;42.680;23.312;2023-10-13T03:25:09;18.55;;;9.27;;
62696;SDS011;48761;42.680;23.312;2023-10-13T03:27:34;15.75;;;9.48;;
62696;SDS011;48761;42.680;23.312;2023-10-13T03:30:00;18.17;;;9.57;;
62696;SDS011;48761;42.680;23.312;2023-10-13T03:32:26;19.17;;;9.80;;
62696;SDS011;48761;42.680;23.312;2023-10-13T03:34:52;16.35;;;9.18;;
62696;SDS011;48761;42.680;23.312;2023-10-13T03:37:18;18.33;;;10.50;;
62696;SDS011;48761;42.680;23.312;2023-10-13T03:39:45;21.50;;;10.13;;
62696;SDS011;48761;42.680;23.312;2023-10-13T03:42:11;16.50;;;9.07;;
62696;SDS011;48761;42.680;23.312;2023-10-13T03:44:37;18.38;;;10.50;;
62696;SDS011;48761;42.680;23.312;2023-10-13T03:47:03;18.60;;;9.55;;
62696;SDS011;48761;42.680;23.312;2023-10-13T03:49:29;16.02;;;9.32;;
62696;SDS011;48761;42.680;23.312;2023-10-13T03:51:55;14.60;;;9.52;;
62696;SDS011;48761;42.680;23.312;2023-10-13T03:54:20;17.10;;;9.85;;
62696;SDS011;48761;42.680;23.312;2023-10-13T03:56:46;18.92;;;10.07;;
62696;SDS011;48761;42.680;23.312;2023-10-13T03:59:12;18.55;;;9.15;;
62696;SDS011;48761;42.680;23.312;2023-10-13T04:01:38;14.85;;;9.60;;
62696;SDS011;48761;42.680;23.312;2023-10-13T04:04:04;20.55;;;9.70;;
62696;SDS011;48761;42.680;23.312;2023-10-13T04:06:31;15.32;;;10.00;;
62696;SDS011;48761;42.680;23.312;2023-10-13T04:08:57;14.35;;;9.85;;
62696;SDS011;48761;42.680;23.312;2023-10-13T04:11:22;30.33;;;15.82;;
62696;SDS011;48761;42.680;23.312;2023-10-13T04:13:48;43.60;;;24.33;;
62696;SDS011;48761;42.680;23.312;2023-10-13T04:16:14;26.15;;;12.25;;
62696;SDS011;48761;42.680;23.312;2023-10-13T04:18:40;34.35;;;19.10;;
62696;SDS011;48761;42.680;23.312;2023-10-13T04:21:06;30.67;;;15.52;;
62696;SDS011;48761;42.680;23.312;2023-10-13T04:23:32;28.70;;;16.65;;
62696;SDS011;48761;42.680;23.312;2023-10-13T04:25:58;20.30;;;12.13;;
62696;SDS011;48761;42.680;23.312;2023-10-13T04:28:24;20.73;;;10.20;;
62696;SDS011;48761;42.680;23.312;2023-10-13T04:30:50;16.40;;;8.90;;
62696;SDS011;48761;42.680;23.312;2023-10-13T04:33:17;18.40;;;9.95;;
62696;SDS011;48761;42.680;23.312;2023-10-13T04:35:43;13.15;;;8.50;;
62696;SDS011;48761;42.680;23.312;2023-10-13T04:38:08;17.02;;;9.68;;
62696;SDS011;48761;42.680;23.312;2023-10-13T04:40:34;20.33;;;10.23;;
62696;SDS011;48761;42.680;23.312;2023-10-13T04:43:06;19.17;;;11.27;;
62696;SDS011;48761;42.680;23.312;2023-10-13T04:45:32;17.70;;;11.27;;
62696;SDS011;48761;42.680;23.312;2023-10-13T04:47:59;20.30;;;11.68;;
62696;SDS011;48761;42.680;23.312;2023-10-13T04:50:25;26.38;;;10.73;;
62696;SDS011;48761;42.680;23.312;2023-10-13T04:52:51;18.23;;;10.52;;
62696;SDS011;48761;42.680;23.312;2023-10-13T04:55:17;17.83;;;10.27;;
62696;SDS011;48761;42.680;23.312;2023-10-13T04:57:43;18.67;;;10.55;;
62696;SDS011;48761;42.680;23.312;2023-10-13T05:00:09;20.75;;;11.55;;
62696;SDS011;48761;42.680;23.312;2023-10-13T05:02:36;18.52;;;11.43;;
62696;SDS011;48761;42.680;23.312;2023-10-13T05:05:07;23.85;;;12.00;;
62696;SDS011;48761;42.680;23.312;2023-10-13T05:07:33;20.27;;;11.70;;
62696;SDS011;48761;42.680;23.312;2023-10-13T05:09:59;27.60;;;12.70;;
62696;SDS011;48761;42.680;23.312;2023-10-13T05:12:25;24.33;;;13.25;;
62696;SDS011;48761;42.680;23.312;2023-10-13T05:14:51;28.38;;;13.60;;
62696;SDS011;48761;42.680;23.312;2023-10-13T05:17:17;26.00;;;13.23;;
62696;SDS011;48761;42.680;23.312;2023-10-13T05:19:42;28.25;;;12.02;;
62696;SDS011;48761;42.680;23.312;2023-10-13T05:22:08;20.77;;;12.02;;
62696;SDS011;48761;42.680;23.312;2023-10-13T05:24:34;22.70;;;12.80;;
62696;SDS011;48761;42.680;23.312;2023-10-13T05:27:00;29.30;;;13.43;;
62696;SDS011;48761;42.680;23.312;2023-10-13T05:29:26;24.58;;;13.55;;
62696;SDS011;48761;42.680;23.312;2023-10-13T05:31:52;22.60;;;12.63;;
62696;SDS011;48761;42.680;23.312;2023-10-13T05:34:18;32.83;;;13.18;;
62696;SDS011;48761;42.680;23.312;2023-10-13T05:36:44;26.45;;;13.27;;
62696;SDS011;48761;42.680;23.312;2023-10-13T05:39:09;28.95;;;11.93;;
62696;SDS011;48761;42.680;23.312;2023-10-13T05:41:35;28.30;;;12.80;;
62696;SDS011;48761;42.680;23.312;2023-10-13T05:44:01;24.15;;;11.98;;
62696;SDS011;48761;42.680;23.312;2023-10-13T05:46:27;22.42;;;12.65;;
62696;SDS011;48761;42.680;23.312;2023-10-13T05:48:54;21.00;;;11.52;;
62696;SDS011;48761;42.680;23.312;2023-10-13T05:51:20;25.08;;;12.75;;
62696;SDS011;48761;42.680;23.312;2023-10-13T05:53:46;22.23;;;12.50;;
62696;SDS011;48761;42.680;23.312;2023-10-13T05:56:12;27.08;;;11.65;;
62696;SDS011;48761;42.680;23.312;2023-10-13T05:58:38;28.30;;;12.60;;
62696;SDS011;48761;42.680;23.312;2023-10-13T06:01:04;25.85;;;11.80;;
62696;SDS011;48761;42.680;23.312;2023-10-13T06:03:29;21.48;;;11.52;;
62696;SDS011;48761;42.680;23.312;2023-10-13T06:05:55;26.13;;;12.32;;
62696;SDS011;48761;42.680;23.312;2023-10-13T06:08:21;21.50;;;11.73;;
62696;SDS011;48761;42.680;23.312;2023-10-13T06:10:48;25.42;;;12.82;;
62696;SDS011;48761;42.680;23.312;2023-10-13T06:13:14;27.58;;;14.57;;
62696;SDS011;48761;42.680;23.312;2023-10-13T06:15:39;26.00;;;16.13;;
62696;SDS011;48761;42.680;23.312;2023-10-13T06:18:05;23.90;;;14.60;;
62696;SDS011;48761;42.680;23.312;2023-10-13T06:20:31;25.73;;;14.02;;
62696;SDS011;48761;42.680;23.312;2023-10-13T06:22:57;28.65;;;13.05;;
62696;SDS011;48761;42.680;23.312;2023-10-13T06:25:23;22.42;;;12.07;;
62696;SDS011;48761;42.680;23.312;2023-10-13T06:27:50;19.73;;;11.50;;
62696;SDS011;48761;42.680;23.312;2023-10-13T06:30:15;28.58;;;13.20;;
62696;SDS011;48761;42.680;23.312;2023-10-13T06:32:41;27.20;;;12.93;;
62696;SDS011;48761;42.680;23.312;2023-10-13T06:35:08;28.35;;;12.63;;
62696;SDS011;48761;42.680;23.312;2023-10-13T06:37:33;29.58;;;13.40;;
62696;SDS011;48761;42.680;23.312;2023-10-13T06:40:01;23.52;;;12.75;;
62696;SDS011;48761;42.680;23.312;2023-10-13T06:42:33;23.23;;;13.80;;
62696;SDS011;48761;42.680;23.312;2023-10-13T06:45:00;31.20;;;13.48;;
62696;SDS011;48761;42.680;23.312;2023-10-13T06:47:26;21.42;;;12.90;;
62696;SDS011;48761;42.680;23.312;2023-10-13T06:49:52;27.63;;;13.68;;
62696;SDS011;48761;42.680;23.312;2023-10-13T06:52:18;28.17;;;13.18;;
62696;SDS011;48761;42.680;23.312;2023-10-13T06:54:44;21.25;;;14.13;;
62696;SDS011;48761;42.680;23.312;2023-10-13T06:57:10;20.85;;;13.00;;
62696;SDS011;48761;42.680;23.312;2023-10-13T06:59:36;26.33;;;14.88;;
62696;SDS011;48761;42.680;23.312;2023-10-13T07:02:02;29.35;;;14.35;;
62696;SDS011;48761;42.680;23.312;2023-10-13T07:04:28;26.50;;;14.43;;
62696;SDS011;48761;42.680;23.312;2023-10-13T07:06:54;34.65;;;15.55;;
62696;SDS011;48761;42.680;23.312;2023-10-13T07:09:20;24.80;;;14.85;;
62696;SDS011;48761;42.680;23.312;2023-10-13T07:11:46;24.80;;;14.68;;
62696;SDS011;48761;42.680;23.312;2023-10-13T07:14:12;23.98;;;13.93;;
62696;SDS011;48761;42.680;23.312;2023-10-13T07:16:54;23.60;;;13.73;;
62696;SDS011;48761;42.680;23.312;2023-10-13T07:19:26;31.30;;;14.32;;
62696;SDS011;48761;42.680;23.312;2023-10-13T07:21:52;24.73;;;14.63;;
62696;SDS011;48761;42.680;23.312;2023-10-13T07:24:18;23.08;;;13.27;;
62696;SDS011;48761;42.680;23.312;2023-10-13T07:26:44;29.73;;;15.38;;
62696;SDS011;48761;42.680;23.312;2023-10-13T07:29:10;21.80;;;14.65;;
62696;SDS011;48761;42.680;23.312;2023-10-13T07:31:36;22.95;;;14.43;;
62696;SDS011;48761;42.680;23.312;2023-10-13T07:34:01;26.58;;;14.57;;
62696;SDS011;48761;42.680;23.312;2023-10-13T07:36:27;25.90;;;13.90;;
62696;SDS011;48761;42.680;23.312;2023-10-13T07:38:53;26.30;;;13.63;;
62696;SDS011;48761;42.680;23.312;2023-10-13T07:41:19;24.70;;;14.50;;
62696;SDS011;48761;42.680;23.312;2023-10-13T07:43:45;24.77;;;13.68;;
62696;SDS011;48761;42.680;23.312;2023-10-13T07:46:11;30.35;;;13.65;;
62696;SDS011;48761;42.680;23.312;2023-10-13T07:48:37;29.02;;;16.08;;
62696;SDS011;48761;42.680;23.312;2023-10-13T07:51:09;25.10;;;15.27;;
62696;SDS011;48761;42.680;23.312;2023-10-13T07:53:35;21.75;;;13.68;;
62696;SDS011;48761;42.680;23.312;2023-10-13T07:56:01;28.65;;;14.15;;
62696;SDS011;48761;42.680;23.312;2023-10-13T07:58:27;27.60;;;14.18;;
62696;SDS011;48761;42.680;23.312;2023-10-13T08:00:53;39.80;;;16.65;;
62696;SDS011;48761;42.680;23.312;2023-10-13T08:03:19;190.55;;;30.30;;
62696;SDS011;48761;42.680;23.312;2023-10-13T08:05:51;34.47;;;15.57;;
62696;SDS011;48761;42.680;23.312;2023-10-13T08:08:18;28.20;;;15.20;;
62696;SDS011;48761;42.680;23.312;2023-10-13T08:10:44;32.50;;;13.77;;
62696;SDS011;48761;42.680;23.312;2023-10-13T08:13:10;34.17;;;15.57;;
62696;SDS011;48761;42.680;23.312;2023-10-13T08:15:36;26.88;;;14.25;;
62696;SDS011;48761;42.680;23.312;2023-10-13T08:18:02;32.72;;;15.35;;
62696;SDS011;48761;42.680;23.312;2023-10-13T08:20:28;28.77;;;15.32;;
62696;SDS011;48761;42.680;23.312;2023-10-13T08:22:54;27.13;;;15.30;;
62696;SDS011;48761;42.680;23.312;2023-10-13T08:25:20;28.17;;;16.52;;
62696;SDS011;48761;42.680;23.312;2023-10-13T08:27:46;29.90;;;15.23;;
62696;SDS011;48761;42.680;23.312;2023-10-13T08:30:12;39.55;;;21.80;;
62696;SDS011;48761;42.680;23.312;2023-10-13T08:32:38;37.22;;;18.10;;
62696;SDS011;48761;42.680;23.312;2023-10-13T08:35:04;34.15;;;18.77;;
62696;SDS011;48761;42.680;23.312;2023-10-13T08:37:31;38.40;;;19.33;;
62696;SDS011;48761;42.680;23.312;2023-10-13T08:39:58;38.92;;;18.75;;
62696;SDS011;48761;42.680;23.312;2023-10-13T08:42:26;42.00;;;20.15;;
62696;SDS011;48761;42.680;23.312;2023-10-13T08:44:54;42.15;;;20.48;;
62696;SDS011;48761;42.680;23.312;2023-10-13T08:47:20;36.70;;;19.60;;
62696;SDS011;48761;42.680;23.312;2023-10-13T08:49:46;38.25;;;19.10;;
62696;SDS011;48761;42.680;23.312;2023-10-13T08:52:13;32.25;;;18.80;;
62696;SDS011;48761;42.680;23.312;2023-10-13T08:54:41;31.52;;;18.63;;
62696;SDS011;48761;42.680;23.312;2023-10-13T08:57:07;40.08;;;19.17;;
62696;SDS011;48761;42.680;23.312;2023-10-13T08:59:33;36.83;;;18.33;;
62696;SDS011;48761;42.680;23.312;2023-10-13T09:01:59;36.47;;;19.13;;
62696;SDS011;48761;42.680;23.312;2023-10-13T09:04:25;35.33;;;19.25;;
62696;SDS011;48761;42.680;23.312;2023-10-13T09:06:52;34.70;;;18.25;;
62696;SDS011;48761;42.680;23.312;2023-10-13T09:09:23;37.28;;;18.88;;
62696;SDS011;48761;42.680;23.312;2023-10-13T09:11:50;36.33;;;18.45;;
62696;SDS011;48761;42.680;23.312;2023-10-13T09:14:16;31.83;;;18.75;;
62696;SDS011;48761;42.680;23.312;2023-10-13T09:16:42;37.40;;;17.92;;
62696;SDS011;48761;42.680;23.312;2023-10-13T09:19:07;38.58;;;16.98;;
62696;SDS011;48761;42.680;23.312;2023-10-13T09:21:40;26.52;;;15.00;;
62696;SDS011;48761;42.680;23.312;2023-10-13T09:24:10;30.38;;;13.15;;
62696;SDS011;48761;42.680;23.312;2023-10-13T09:26:37;31.48;;;12.60;;
62696;SDS011;48761;42.680;23.312;2023-10-13T09:29:13;26.80;;;16.15;;
62696;SDS011;48761;42.680;23.312;2023-10-13T09:31:40;32.63;;;19.10;;
62696;SDS011;48761;42.680;23.312;2023-10-13T09:34:06;27.92;;;13.73;;
62696;SDS011;48761;42.680;23.312;2023-10-13T09:36:31;30.80;;;14.13;;
62696;SDS011;48761;42.680;23.312;2023-10-13T09:38:57;23.90;;;11.90;;
62696;SDS011;48761;42.680;23.312;2023-10-13T09:41:24;26.75;;;12.57;;
62696;SDS011;48761;42.680;23.312;2023-10-13T09:43:50;26.73;;;12.48;;
62696;SDS011;48761;42.680;23.312;2023-10-13T09:46:19;28.88;;;13.48;;
62696;SDS011;48761;42.680;23.312;2023-10-13T09:48:46;27.40;;;12.35;;
62696;SDS011;48761;42.680;23.312;2023-10-13T09:51:16;26.65;;;11.60;;
62696;SDS011;48761;42.680;23.312;2023-10-13T09:53:43;25.58;;;12.25;;
62696;SDS011;48761;42.680;23.312;2023-10-13T09:56:31;28.38;;;11.32;;
62696;SDS011;48761;42.680;23.312;2023-10-13T09:59:10;20.80;;;10.75;;
62696;SDS011;48761;42.680;23.312;2023-10-13T10:01:42;26.90;;;11.40;;
62696;SDS011;48761;42.680;23.312;2023-10-13T10:04:10;23.05;;;10.25;;
62696;SDS011;48761;42.680;23.312;2023-10-13T10:06:39;25.35;;;10.20;;
62696;SDS011;48761;42.680;23.312;2023-10-13T10:09:05;19.88;;;9.55;;
62696;SDS011;48761;42.680;23.312;2023-10-13T10:11:38;25.52;;;10.07;;
62696;SDS011;48761;42.680;23.312;2023-10-13T10:17:21;14.63;;;8.43;;
62696;SDS011;48761;42.680;23.312;2023-10-13T10:19:49;13.90;;;6.35;;
62696;SDS011;48761;42.680;23.312;2023-10-13T10:22:55;16.48;;;6.43;;
62696;SDS011;48761;42.680;23.312;2023-10-13T10:25:28;19.77;;;7.47;;
62696;SDS011;48761;42.680;23.312;2023-10-13T10:27:55;16.77;;;7.55;;
62696;SDS011;48761;42.680;23.312;2023-10-13T10:30:26;19.77;;;7.13;;
62696;SDS011;48761;42.680;23.312;2023-10-13T10:32:57;18.25;;;7.22;;
62696;SDS011;48761;42.680;23.312;2023-10-13T10:35:23;20.42;;;6.68;;
62696;SDS011;48761;42.680;23.312;2023-10-13T10:37:50;17.00;;;7.70;;
62696;SDS011;48761;42.680;23.312;2023-10-13T10:40:16;16.35;;;6.57;;
62696;SDS011;48761;42.680;23.312;2023-10-13T10:42:43;16.13;;;6.25;;
62696;SDS011;48761;42.680;23.312;2023-10-13T10:45:09;15.85;;;6.90;;
62696;SDS011;48761;42.680;23.312;2023-10-13T10:47:35;13.75;;;6.43;;
62696;SDS011;48761;42.680;23.312;2023-10-13T10:50:02;13.68;;;6.85;;
62696;SDS011;48761;42.680;23.312;2023-10-13T10:52:28;23.40;;;8.15;;
62696;SDS011;48761;42.680;23.312;2023-10-13T10:55:00;9.40;;;4.85;;
62696;SDS011;48761;42.680;23.312;2023-10-13T10:57:26;14.20;;;4.78;;
62696;SDS011;48761;42.680;23.312;2023-10-13T10:59:52;11.68;;;4.38;;
62696;SDS011;48761;42.680;23.312;2023-10-13T11:02:18;8.32;;;4.57;;
62696;SDS011;48761;42.680;23.312;2023-10-13T11:04:50;16.25;;;5.57;;
62696;SDS011;48761;42.680;23.312;2023-10-13T11:09:49;14.57;;;6.32;;
62696;SDS011;48761;42.680;23.312;2023-10-13T11:12:15;11.50;;;5.47;;
62696;SDS011;48761;42.680;23.312;2023-10-13T11:14:43;14.40;;;5.15;;
62696;SDS011;48761;42.680;23.312;2023-10-13T11:17:10;9.65;;;5.18;;
62696;SDS011;48761;42.680;23.312;2023-10-13T11:19:40;14.43;;;5.68;;
62696;SDS011;48761;42.680;23.312;2023-10-13T11:22:10;8.23;;;5.10;;
62696;SDS011;48761;42.680;23.312;2023-10-13T11:24:42;13.57;;;4.32;;
62696;SDS011;48761;42.680;23.312;2023-10-13T11:27:14;12.13;;;4.38;;
62696;SDS011;48761;42.680;23.312;2023-10-13T11:29:41;7.45;;;3.42;;
62696;SDS011;48761;42.680;23.312;2023-10-13T11:32:07;10.68;;;3.67;;
62696;SDS011;48761;42.680;23.312;2023-10-13T11:34:32;11.32;;;3.80;;
62696;SDS011;48761;42.680;23.312;2023-10-13T11:36:58;6.40;;;2.92;;
62696;SDS011;48761;42.680;23.312;2023-10-13T11:39:24;9.48;;;2.80;;
62696;SDS011;48761;42.680;23.312;2023-10-13T11:41:50;9.57;;;3.38;;
62696;SDS011;48761;42.680;23.312;2023-10-13T11:44:16;10.55;;;2.92;;
62696;SDS011;48761;42.680;23.312;2023-10-13T11:46:42;7.03;;;2.65;;
62696;SDS011;48761;42.680;23.312;2023-10-13T11:49:09;10.95;;;3.05;;
62696;SDS011;48761;42.680;23.312;2023-10-13T11:51:36;12.80;;;2.80;;
62696;SDS011;48761;42.680;23.312;2023-10-13T11:54:02;11.73;;;3.35;;
62696;SDS011;48761;42.680;23.312;2023-10-13T11:56:27;9.50;;;3.35;;
62696;SDS011;48761;42.680;23.312;2023-10-13T11:58:53;8.70;;;2.90;;
62696;SDS011;48761;42.680;23.312;2023-10-13T12:01:19;12.18;;;3.42;;
62696;SDS011;48761;42.680;23.312;2023-10-13T12:03:46;9.05;;;4.18;;
62696;SDS011;48761;42.680;23.312;2023-10-13T12:06:13;6.82;;;3.10;;
62696;SDS011;48761;42.680;23.312;2023-10-13T12:08:39;8.20;;;3.20;;
62696;SDS011;48761;42.680;23.312;2023-10-13T12:11:05;6.97;;;3.22;;
62696;SDS011;48761;42.680;23.312;2023-10-13T12:13:31;8.35;;;3.08;;
62696;SDS011;48761;42.680;23.312;2023-10-13T12:15:57;13.77;;;4.20;;
62696;SDS011;48761;42.680;23.312;2023-10-13T12:18:23;12.38;;;3.35;;
62696;SDS011;48761;42.680;23.312;2023-10-13T12:20:49;15.90;;;4.35;;
62696;SDS011;48761;42.680;23.312;2023-10-13T12:23:15;12.55;;;3.22;;
62696;SDS011;48761;42.680;23.312;2023-10-13T12:25:40;10.00;;;3.13;;
62696;SDS011;48761;42.680;23.312;2023-10-13T12:28:06;8.52;;;2.95;;
62696;SDS011;48761;42.680;23.312;2023-10-13T12:30:32;9.27;;;3.03;;
62696;SDS011;48761;42.680;23.312;2023-10-13T12:32:58;9.35;;;3.38;;
62696;SDS011;48761;42.680;23.312;2023-10-13T12:35:24;9.55;;;3.58;;
62696;SDS011;48761;42.680;23.312;2023-10-13T12:37:50;9.07;;;3.30;;
62696;SDS011;48761;42.680;23.312;2023-10-13T12:40:17;6.93;;;2.70;;
62696;SDS011;48761;42.680;23.312;2023-10-13T12:42:44;7.90;;;2.92;;
62696;SDS011;48761;42.680;23.312;2023-10-13T12:45:10;7.07;;;3.03;;
62696;SDS011;48761;42.680;23.312;2023-10-13T12:47:36;9.27;;;3.33;;
62696;SDS011;48761;42.680;23.312;2023-10-13T12:50:02;6.00;;;3.03;;
62696;SDS011;48761;42.680;23.312;2023-10-13T12:52:28;6.80;;;2.60;;
62696;SDS011;48761;42.680;23.312;2023-10-13T12:54:54;6.90;;;3.00;;
62696;SDS011;48761;42.680;23.312;2023-10-13T12:57:26;7.75;;;3.15;;
62696;SDS011;48761;42.680;23.312;2023-10-13T12:59:53;5.13;;;2.63;;
62696;SDS011;48761;42.680;23.312;2023-10-13T13:02:23;7.70;;;3.50;;
62696;SDS011;48761;42.680;23.312;2023-10-13T13:04:51;7.40;;;3.10;;
62696;SDS011;48761;42.680;23.312;2023-10-13T13:07:17;9.15;;;3.50;;
62696;SDS011;48761;42.680;23.312;2023-10-13T13:09:43;8.40;;;3.13;;
62696;SDS011;48761;42.680;23.312;2023-10-13T13:12:09;7.85;;;3.15;;
62696;SDS011;48761;42.680;23.312;2023-10-13T13:14:35;12.25;;;3.33;;
62696;SDS011;48761;42.680;23.312;2023-10-13T13:17:01;6.80;;;3.10;;
62696;SDS011;48761;42.680;23.312;2023-10-13T13:19:26;6.57;;;2.70;;
62696;SDS011;48761;42.680;23.312;2023-10-13T13:21:52;7.55;;;3.15;;
62696;SDS011;48761;42.680;23.312;2023-10-13T13:24:18;9.18;;;2.90;;
62696;SDS011;48761;42.680;23.312;2023-10-13T13:26:44;5.97;;;2.78;;
62696;SDS011;48761;42.680;23.312;2023-10-13T13:29:10;6.38;;;2.55;;
62696;SDS011;48761;42.680;23.312;2023-10-13T13:31:36;9.32;;;2.97;;
62696;SDS011;48761;42.680;23.312;2023-10-13T13:34:02;6.53;;;2.90;;
62696;SDS011;48761;42.680;23.312;2023-10-13T13:36:28;7.00;;;3.00;;
62696;SDS011;48761;42.680;23.312;2023-10-13T13:38:54;9.60;;;2.90;;
62696;SDS011;48761;42.680;23.312;2023-10-13T13:41:20;4.78;;;2.42;;
62696;SDS011;48761;42.680;23.312;2023-10-13T13:43:47;6.63;;;2.70;;
62696;SDS011;48761;42.680;23.312;2023-10-13T13:46:15;9.90;;;4.00;;
62696;SDS011;48761;42.680;23.312;2023-10-13T13:48:41;8.13;;;3.45;;
62696;SDS011;48761;42.680;23.312;2023-10-13T13:51:07;8.70;;;3.03;;
62696;SDS011;48761;42.680;23.312;2023-10-13T13:53:34;9.02;;;3.42;;
62696;SDS011;48761;42.680;23.312;2023-10-13T13:56:01;6.65;;;3.10;;
62696;SDS011;48761;42.680;23.312;2023-10-13T13:58:27;5.28;;;2.90;;
62696;SDS011;48761;42.680;23.312;2023-10-13T14:00:58;6.93;;;3.22;;
62696;SDS011;48761;42.680;23.312;2023-10-13T14:05:51;9.77;;;3.20;;
62696;SDS011;48761;42.680;23.312;2023-10-13T14:08:17;8.27;;;3.08;;
62696;SDS011;48761;42.680;23.312;2023-10-13T14:10:42;9.50;;;3.17;;
62696;SDS011;48761;42.680;23.312;2023-10-13T14:13:08;9.52;;;3.40;;
62696;SDS011;48761;42.680;23.312;2023-10-13T14:15:34;9.43;;;3.75;;
62696;SDS011;48761;42.680;23.312;2023-10-13T14:18:01;9.43;;;3.55;;
62696;SDS011;48761;42.680;23.312;2023-10-13T14:20:26;9.43;;;3.58;;
62696;SDS011;48761;42.680;23.312;2023-10-13T14:22:52;10.68;;;3.78;;